sensor_id;sensor_type;location;lat;lon;timestamp;P1;durP1;ratioP1;P2;durP2;ratioP2
13067;SDS011;6600;51.362;6.686;2022-07-10T00:00:11;0.63;;;0.43;;
13067;SDS011;6600;51.362;6.686;2022-07-10T00:02:39;0.73;;;0.30;;
13067;SDS011;6600;51.362;6.686;2022-07-10T00:05:06;0.87;;;0.40;;
13067;SDS011;6600;51.362;6.686;2022-07-10T00:07:32;0.33;;;0.33;;
13067;SDS011;6600;51.362;6.686;2022-07-10T00:09:58;0.30;;;0.30;;
13067;SDS011;6600;51.362;6.686;2022-07-10T00:12:23;1.20;;;0.57;;
13067;SDS011;6600;51.362;6.686;2022-07-10T00:14:49;3.40;;;0.70;;
13067;SDS011;6600;51.362;6.686;2022-07-10T00:17:14;2.00;;;0.60;;
13067;SDS011;6600;51.362;6.686;2022-07-10T00:19:39;0.30;;;0.30;;
13067;SDS011;6600;51.362;6.686;2022-07-10T00:22:05;0.40;;;0.40;;
13067;SDS011;6600;51.362;6.686;2022-07-10T00:24:30;0.30;;;0.30;;
13067;SDS011;6600;51.362;6.686;2022-07-10T00:26:55;0.57;;;0.30;;
13067;SDS011;6600;51.362;6.686;2022-07-10T00:29:27;0.33;;;0.33;;
13067;SDS011;6600;51.362;6.686;2022-07-10T00:31:52;0.40;;;0.40;;
13067;SDS011;6600;51.362;6.686;2022-07-10T00:34:18;0.87;;;0.63;;
13067;SDS011;6600;51.362;6.686;2022-07-10T00:36:43;0.23;;;0.23;;
13067;SDS011;6600;51.362;6.686;2022-07-10T00:39:09;0.83;;;0.40;;
13067;SDS011;6600;51.362;6.686;2022-07-10T00:41:35;0.23;;;0.23;;
13067;SDS011;6600;51.362;6.686;2022-07-10T00:44:01;0.30;;;0.30;;
13067;SDS011;6600;51.362;6.686;2022-07-10T00:46:28;1.00;;;0.33;;
13067;SDS011;6600;51.362;6.686;2022-07-10T00:48:54;0.40;;;0.30;;
13067;SDS011;6600;51.362;6.686;2022-07-10T00:51:21;0.40;;;0.30;;
13067;SDS011;6600;51.362;6.686;2022-07-10T00:53:48;0.73;;;0.50;;
13067;SDS011;6600;51.362;6.686;2022-07-10T00:56:16;1.00;;;0.60;;
13067;SDS011;6600;51.362;6.686;2022-07-10T00:58:43;1.60;;;0.30;;
13067;SDS011;6600;51.362;6.686;2022-07-10T01:01:10;0.63;;;0.60;;
13067;SDS011;6600;51.362;6.686;2022-07-10T01:03:35;0.67;;;0.40;;
13067;SDS011;6600;51.362;6.686;2022-07-10T01:06:01;1.17;;;0.47;;
13067;SDS011;6600;51.362;6.686;2022-07-10T01:08:27;0.30;;;0.30;;
13067;SDS011;6600;51.362;6.686;2022-07-10T01:10:53;1.57;;;0.47;;
13067;SDS011;6600;51.362;6.686;2022-07-10T01:13:18;0.57;;;0.40;;
13067;SDS011;6600;51.362;6.686;2022-07-10T01:15:44;0.40;;;0.33;;
13067;SDS011;6600;51.362;6.686;2022-07-10T01:18:11;1.10;;;0.50;;
13067;SDS011;6600;51.362;6.686;2022-07-10T01:20:38;1.60;;;0.70;;
13067;SDS011;6600;51.362;6.686;2022-07-10T01:23:03;0.50;;;0.40;;
13067;SDS011;6600;51.362;6.686;2022-07-10T01:25:28;2.43;;;0.37;;
13067;SDS011;6600;51.362;6.686;2022-07-10T01:27:54;0.73;;;0.60;;
13067;SDS011;6600;51.362;6.686;2022-07-10T01:30:19;0.40;;;0.40;;
13067;SDS011;6600;51.362;6.686;2022-07-10T01:32:46;1.73;;;0.30;;
13067;SDS011;6600;51.362;6.686;2022-07-10T01:35:11;0.33;;;0.27;;
13067;SDS011;6600;51.362;6.686;2022-07-10T01:37:38;0.47;;;0.47;;
13067;SDS011;6600;51.362;6.686;2022-07-10T01:40:04;0.40;;;0.40;;
13067;SDS011;6600;51.362;6.686;2022-07-10T01:42:30;0.40;;;0.40;;
13067;SDS011;6600;51.362;6.686;2022-07-10T01:44:55;0.70;;;0.47;;
13067;SDS011;6600;51.362;6.686;2022-07-10T01:47:20;0.67;;;0.63;;
13067;SDS011;6600;51.362;6.686;2022-07-10T01:49:49;0.60;;;0.50;;
13067;SDS011;6600;51.362;6.686;2022-07-10T01:52:16;0.70;;;0.57;;
13067;SDS011;6600;51.362;6.686;2022-07-10T01:54:41;0.30;;;0.30;;
13067;SDS011;6600;51.362;6.686;2022-07-10T01:57:07;0.70;;;0.50;;
13067;SDS011;6600;51.362;6.686;2022-07-10T01:59:32;0.53;;;0.37;;
13067;SDS011;6600;51.362;6.686;2022-07-10T02:01:57;0.30;;;0.30;;
13067;SDS011;6600;51.362;6.686;2022-07-10T02:04:23;0.20;;;0.20;;
13067;SDS011;6600;51.362;6.686;2022-07-10T02:07:16;3.70;;;0.57;;
13067;SDS011;6600;51.362;6.686;2022-07-10T02:09:43;0.40;;;0.40;;
13067;SDS011;6600;51.362;6.686;2022-07-10T02:12:10;0.30;;;0.30;;
13067;SDS011;6600;51.362;6.686;2022-07-10T02:14:39;0.10;;;0.10;;
13067;SDS011;6600;51.362;6.686;2022-07-10T02:17:05;0.70;;;0.60;;
13067;SDS011;6600;51.362;6.686;2022-07-10T02:19:31;0.50;;;0.40;;
13067;SDS011;6600;51.362;6.686;2022-07-10T02:21:57;0.27;;;0.27;;
13067;SDS011;6600;51.362;6.686;2022-07-10T02:24:22;0.30;;;0.30;;
13067;SDS011;6600;51.362;6.686;2022-07-10T02:26:48;1.47;;;0.40;;
13067;SDS011;6600;51.362;6.686;2022-07-10T02:29:14;0.53;;;0.40;;
13067;SDS011;6600;51.362;6.686;2022-07-10T02:31:39;1.73;;;0.27;;
13067;SDS011;6600;51.362;6.686;2022-07-10T02:34:08;3.90;;;0.70;;
13067;SDS011;6600;51.362;6.686;2022-07-10T02:36:37;0.63;;;0.53;;
13067;SDS011;6600;51.362;6.686;2022-07-10T02:39:06;0.57;;;0.57;;
13067;SDS011;6600;51.362;6.686;2022-07-10T02:41:32;1.17;;;0.70;;
13067;SDS011;6600;51.362;6.686;2022-07-10T02:43:58;1.20;;;0.60;;
13067;SDS011;6600;51.362;6.686;2022-07-10T02:46:24;1.63;;;0.60;;
13067;SDS011;6600;51.362;6.686;2022-07-10T02:48:49;1.90;;;0.77;;
13067;SDS011;6600;51.362;6.686;2022-07-10T02:51:15;1.13;;;1.03;;
13067;SDS011;6600;51.362;6.686;2022-07-10T02:53:40;2.47;;;0.90;;
13067;SDS011;6600;51.362;6.686;2022-07-10T02:56:05;2.43;;;1.00;;
13067;SDS011;6600;51.362;6.686;2022-07-10T02:58:32;0.93;;;0.80;;
13067;SDS011;6600;51.362;6.686;2022-07-10T03:00:58;3.07;;;1.03;;
13067;SDS011;6600;51.362;6.686;2022-07-10T03:03:23;2.00;;;0.80;;
13067;SDS011;6600;51.362;6.686;2022-07-10T03:05:49;0.50;;;0.50;;
13067;SDS011;6600;51.362;6.686;2022-07-10T03:08:14;0.70;;;0.70;;
13067;SDS011;6600;51.362;6.686;2022-07-10T03:10:39;2.60;;;0.80;;
13067;SDS011;6600;51.362;6.686;2022-07-10T03:13:05;0.50;;;0.50;;
13067;SDS011;6600;51.362;6.686;2022-07-10T03:15:31;0.67;;;0.67;;
13067;SDS011;6600;51.362;6.686;2022-07-10T03:17:56;1.33;;;0.80;;
13067;SDS011;6600;51.362;6.686;2022-07-10T03:20:22;0.80;;;0.80;;
13067;SDS011;6600;51.362;6.686;2022-07-10T03:22:47;1.00;;;1.00;;
13067;SDS011;6600;51.362;6.686;2022-07-10T03:25:13;0.93;;;0.93;;
13067;SDS011;6600;51.362;6.686;2022-07-10T03:27:38;1.23;;;0.77;;
13067;SDS011;6600;51.362;6.686;2022-07-10T03:30:04;1.10;;;0.73;;
13067;SDS011;6600;51.362;6.686;2022-07-10T03:32:30;0.50;;;0.40;;
13067;SDS011;6600;51.362;6.686;2022-07-10T03:34:56;1.40;;;0.60;;
13067;SDS011;6600;51.362;6.686;2022-07-10T03:37:21;1.30;;;1.10;;
13067;SDS011;6600;51.362;6.686;2022-07-10T03:39:47;3.20;;;0.83;;
13067;SDS011;6600;51.362;6.686;2022-07-10T03:42:12;0.83;;;0.83;;
13067;SDS011;6600;51.362;6.686;2022-07-10T03:44:37;0.90;;;0.90;;
13067;SDS011;6600;51.362;6.686;2022-07-10T03:47:03;2.47;;;1.07;;
13067;SDS011;6600;51.362;6.686;2022-07-10T03:49:29;0.57;;;0.57;;
13067;SDS011;6600;51.362;6.686;2022-07-10T03:51:54;1.73;;;0.73;;
13067;SDS011;6600;51.362;6.686;2022-07-10T03:54:25;0.90;;;0.90;;
13067;SDS011;6600;51.362;6.686;2022-07-10T03:56:50;0.67;;;0.67;;
13067;SDS011;6600;51.362;6.686;2022-07-10T03:59:34;1.37;;;0.97;;
13067;SDS011;6600;51.362;6.686;2022-07-10T04:01:59;0.70;;;0.67;;
13067;SDS011;6600;51.362;6.686;2022-07-10T04:04:25;1.27;;;0.87;;
13067;SDS011;6600;51.362;6.686;2022-07-10T04:06:50;0.80;;;0.80;;
13067;SDS011;6600;51.362;6.686;2022-07-10T04:09:16;0.90;;;0.80;;
13067;SDS011;6600;51.362;6.686;2022-07-10T04:11:41;0.40;;;0.40;;
13067;SDS011;6600;51.362;6.686;2022-07-10T04:14:06;1.33;;;0.60;;
13067;SDS011;6600;51.362;6.686;2022-07-10T04:16:32;0.87;;;0.73;;
13067;SDS011;6600;51.362;6.686;2022-07-10T04:18:57;0.70;;;0.70;;
13067;SDS011;6600;51.362;6.686;2022-07-10T04:21:22;0.50;;;0.50;;
13067;SDS011;6600;51.362;6.686;2022-07-10T04:23:48;1.00;;;1.00;;
13067;SDS011;6600;51.362;6.686;2022-07-10T04:26:13;1.17;;;1.00;;
13067;SDS011;6600;51.362;6.686;2022-07-10T04:28:39;4.77;;;1.20;;
13067;SDS011;6600;51.362;6.686;2022-07-10T04:31:04;1.83;;;1.10;;
13067;SDS011;6600;51.362;6.686;2022-07-10T04:33:30;1.03;;;0.83;;
13067;SDS011;6600;51.362;6.686;2022-07-10T04:35:55;0.87;;;0.87;;
13067;SDS011;6600;51.362;6.686;2022-07-10T04:38:20;0.70;;;0.70;;
13067;SDS011;6600;51.362;6.686;2022-07-10T04:40:46;1.27;;;0.80;;
13067;SDS011;6600;51.362;6.686;2022-07-10T04:43:11;1.37;;;1.27;;
13067;SDS011;6600;51.362;6.686;2022-07-10T04:45:36;1.13;;;1.00;;
13067;SDS011;6600;51.362;6.686;2022-07-10T04:48:05;0.90;;;0.83;;
13067;SDS011;6600;51.362;6.686;2022-07-10T04:50:30;1.27;;;0.90;;
13067;SDS011;6600;51.362;6.686;2022-07-10T04:52:56;0.60;;;0.60;;
13067;SDS011;6600;51.362;6.686;2022-07-10T04:55:22;1.83;;;1.00;;
13067;SDS011;6600;51.362;6.686;2022-07-10T04:57:47;0.80;;;0.50;;
13067;SDS011;6600;51.362;6.686;2022-07-10T05:00:13;3.03;;;0.87;;
13067;SDS011;6600;51.362;6.686;2022-07-10T05:02:39;0.97;;;0.97;;
13067;SDS011;6600;51.362;6.686;2022-07-10T05:05:04;1.53;;;1.10;;
13067;SDS011;6600;51.362;6.686;2022-07-10T05:07:30;0.77;;;0.77;;
13067;SDS011;6600;51.362;6.686;2022-07-10T05:09:56;1.03;;;0.90;;
13067;SDS011;6600;51.362;6.686;2022-07-10T05:12:21;1.10;;;1.00;;
13067;SDS011;6600;51.362;6.686;2022-07-10T05:14:46;1.40;;;1.10;;
13067;SDS011;6600;51.362;6.686;2022-07-10T05:17:11;1.60;;;1.33;;
13067;SDS011;6600;51.362;6.686;2022-07-10T05:19:37;1.83;;;0.80;;
13067;SDS011;6600;51.362;6.686;2022-07-10T05:22:02;1.00;;;0.90;;
13067;SDS011;6600;51.362;6.686;2022-07-10T05:24:28;1.43;;;1.07;;
13067;SDS011;6600;51.362;6.686;2022-07-10T05:26:53;1.67;;;1.00;;
13067;SDS011;6600;51.362;6.686;2022-07-10T05:29:19;0.57;;;0.57;;
13067;SDS011;6600;51.362;6.686;2022-07-10T05:31:44;2.83;;;0.90;;
13067;SDS011;6600;51.362;6.686;2022-07-10T05:34:10;1.00;;;1.00;;
13067;SDS011;6600;51.362;6.686;2022-07-10T05:36:35;1.80;;;1.00;;
13067;SDS011;6600;51.362;6.686;2022-07-10T05:39:01;1.43;;;1.00;;
13067;SDS011;6600;51.362;6.686;2022-07-10T05:41:26;1.57;;;1.30;;
13067;SDS011;6600;51.362;6.686;2022-07-10T05:43:51;0.90;;;0.90;;
13067;SDS011;6600;51.362;6.686;2022-07-10T05:46:17;2.37;;;1.03;;
13067;SDS011;6600;51.362;6.686;2022-07-10T05:48:42;0.83;;;0.83;;
13067;SDS011;6600;51.362;6.686;2022-07-10T05:51:07;1.10;;;1.00;;
13067;SDS011;6600;51.362;6.686;2022-07-10T05:53:33;0.70;;;0.70;;
13067;SDS011;6600;51.362;6.686;2022-07-10T05:56:01;0.80;;;0.80;;
13067;SDS011;6600;51.362;6.686;2022-07-10T05:58:27;1.40;;;1.30;;
13067;SDS011;6600;51.362;6.686;2022-07-10T06:00:52;0.90;;;0.90;;
13067;SDS011;6600;51.362;6.686;2022-07-10T06:03:18;0.67;;;0.67;;
13067;SDS011;6600;51.362;6.686;2022-07-10T06:05:43;1.30;;;1.17;;
13067;SDS011;6600;51.362;6.686;2022-07-10T06:08:10;0.93;;;0.93;;
13067;SDS011;6600;51.362;6.686;2022-07-10T06:10:36;2.27;;;1.47;;
13067;SDS011;6600;51.362;6.686;2022-07-10T06:13:02;0.97;;;0.80;;
13067;SDS011;6600;51.362;6.686;2022-07-10T06:15:27;1.23;;;1.10;;
13067;SDS011;6600;51.362;6.686;2022-07-10T06:17:55;3.20;;;1.10;;
13067;SDS011;6600;51.362;6.686;2022-07-10T06:20:21;1.63;;;0.90;;
13067;SDS011;6600;51.362;6.686;2022-07-10T06:22:47;1.27;;;1.17;;
13067;SDS011;6600;51.362;6.686;2022-07-10T06:25:12;0.93;;;0.63;;
13067;SDS011;6600;51.362;6.686;2022-07-10T06:27:38;0.80;;;0.80;;
13067;SDS011;6600;51.362;6.686;2022-07-10T06:30:03;0.63;;;0.60;;
13067;SDS011;6600;51.362;6.686;2022-07-10T06:32:29;0.83;;;0.83;;
13067;SDS011;6600;51.362;6.686;2022-07-10T06:34:55;0.50;;;0.50;;
13067;SDS011;6600;51.362;6.686;2022-07-10T06:37:20;0.80;;;0.80;;
13067;SDS011;6600;51.362;6.686;2022-07-10T06:39:46;3.57;;;0.97;;
13067;SDS011;6600;51.362;6.686;2022-07-10T06:42:15;0.60;;;0.60;;
13067;SDS011;6600;51.362;6.686;2022-07-10T06:44:41;0.80;;;0.80;;
13067;SDS011;6600;51.362;6.686;2022-07-10T06:47:07;1.30;;;0.70;;
13067;SDS011;6600;51.362;6.686;2022-07-10T06:49:52;0.63;;;0.43;;
13067;SDS011;6600;51.362;6.686;2022-07-10T06:52:18;0.50;;;0.50;;
13067;SDS011;6600;51.362;6.686;2022-07-10T06:54:43;0.70;;;0.70;;
13067;SDS011;6600;51.362;6.686;2022-07-10T06:57:09;0.93;;;0.80;;
13067;SDS011;6600;51.362;6.686;2022-07-10T06:59:34;1.70;;;0.67;;
13067;SDS011;6600;51.362;6.686;2022-07-10T07:02:00;0.63;;;0.63;;
13067;SDS011;6600;51.362;6.686;2022-07-10T07:04:25;0.60;;;0.60;;
13067;SDS011;6600;51.362;6.686;2022-07-10T07:06:51;0.93;;;0.70;;
13067;SDS011;6600;51.362;6.686;2022-07-10T07:09:16;0.67;;;0.50;;
13067;SDS011;6600;51.362;6.686;2022-07-10T07:11:41;0.40;;;0.40;;
13067;SDS011;6600;51.362;6.686;2022-07-10T07:14:07;0.63;;;0.63;;
13067;SDS011;6600;51.362;6.686;2022-07-10T07:16:32;0.57;;;0.50;;
13067;SDS011;6600;51.362;6.686;2022-07-10T07:19:07;0.50;;;0.43;;
13067;SDS011;6600;51.362;6.686;2022-07-10T07:21:33;0.43;;;0.40;;
13067;SDS011;6600;51.362;6.686;2022-07-10T07:24:17;0.70;;;0.33;;
13067;SDS011;6600;51.362;6.686;2022-07-10T07:26:46;1.17;;;0.67;;
13067;SDS011;6600;51.362;6.686;2022-07-10T07:29:12;1.00;;;0.80;;
13067;SDS011;6600;51.362;6.686;2022-07-10T07:31:39;0.73;;;0.67;;
13067;SDS011;6600;51.362;6.686;2022-07-10T07:34:04;0.80;;;0.80;;
13067;SDS011;6600;51.362;6.686;2022-07-10T07:36:30;0.80;;;0.80;;
13067;SDS011;6600;51.362;6.686;2022-07-10T07:38:55;0.33;;;0.33;;
13067;SDS011;6600;51.362;6.686;2022-07-10T07:41:21;0.60;;;0.60;;
13067;SDS011;6600;51.362;6.686;2022-07-10T07:43:47;1.90;;;0.77;;
13067;SDS011;6600;51.362;6.686;2022-07-10T07:46:13;0.93;;;0.80;;
13067;SDS011;6600;51.362;6.686;2022-07-10T07:48:38;1.47;;;0.87;;
13067;SDS011;6600;51.362;6.686;2022-07-10T07:51:04;0.60;;;0.60;;
13067;SDS011;6600;51.362;6.686;2022-07-10T07:53:29;0.60;;;0.60;;
13067;SDS011;6600;51.362;6.686;2022-07-10T07:55:55;1.63;;;0.60;;
13067;SDS011;6600;51.362;6.686;2022-07-10T07:58:20;0.43;;;0.43;;
13067;SDS011;6600;51.362;6.686;2022-07-10T08:00:45;4.37;;;0.67;;
13067;SDS011;6600;51.362;6.686;2022-07-10T08:03:11;1.17;;;0.63;;
13067;SDS011;6600;51.362;6.686;2022-07-10T08:05:36;1.90;;;0.47;;
13067;SDS011;6600;51.362;6.686;2022-07-10T08:08:01;0.70;;;0.70;;
13067;SDS011;6600;51.362;6.686;2022-07-10T08:10:32;0.83;;;0.83;;
13067;SDS011;6600;51.362;6.686;2022-07-10T08:12:57;1.83;;;0.97;;
13067;SDS011;6600;51.362;6.686;2022-07-10T08:15:23;1.90;;;0.90;;
13067;SDS011;6600;51.362;6.686;2022-07-10T08:17:49;3.27;;;0.87;;
13067;SDS011;6600;51.362;6.686;2022-07-10T08:20:16;0.80;;;0.80;;
13067;SDS011;6600;51.362;6.686;2022-07-10T08:22:42;1.13;;;0.60;;
13067;SDS011;6600;51.362;6.686;2022-07-10T08:25:08;0.73;;;0.67;;
13067;SDS011;6600;51.362;6.686;2022-07-10T08:27:36;0.50;;;0.50;;
13067;SDS011;6600;51.362;6.686;2022-07-10T08:30:02;0.67;;;0.67;;
13067;SDS011;6600;51.362;6.686;2022-07-10T08:32:28;1.70;;;0.37;;
13067;SDS011;6600;51.362;6.686;2022-07-10T08:34:54;0.47;;;0.47;;
13067;SDS011;6600;51.362;6.686;2022-07-10T08:37:20;0.70;;;0.60;;
13067;SDS011;6600;51.362;6.686;2022-07-10T08:39:45;1.63;;;1.03;;
13067;SDS011;6600;51.362;6.686;2022-07-10T08:42:11;0.83;;;0.60;;
13067;SDS011;6600;51.362;6.686;2022-07-10T08:44:36;0.77;;;0.70;;
13067;SDS011;6600;51.362;6.686;2022-07-10T08:47:02;0.93;;;0.30;;
13067;SDS011;6600;51.362;6.686;2022-07-10T08:49:28;1.53;;;0.50;;
13067;SDS011;6600;51.362;6.686;2022-07-10T08:54:32;0.63;;;0.63;;
13067;SDS011;6600;51.362;6.686;2022-07-10T08:56:59;3.23;;;0.70;;
13067;SDS011;6600;51.362;6.686;2022-07-10T08:59:26;1.00;;;0.60;;
13067;SDS011;6600;51.362;6.686;2022-07-10T09:01:53;0.50;;;0.50;;
13067;SDS011;6600;51.362;6.686;2022-07-10T09:04:22;0.83;;;0.70;;
13067;SDS011;6600;51.362;6.686;2022-07-10T09:06:50;0.63;;;0.63;;
13067;SDS011;6600;51.362;6.686;2022-07-10T09:09:17;0.50;;;0.50;;
13067;SDS011;6600;51.362;6.686;2022-07-10T09:11:42;0.83;;;0.70;;
13067;SDS011;6600;51.362;6.686;2022-07-10T09:14:09;0.80;;;0.60;;
13067;SDS011;6600;51.362;6.686;2022-07-10T09:16:39;0.70;;;0.60;;
13067;SDS011;6600;51.362;6.686;2022-07-10T09:19:19;1.10;;;1.00;;
13067;SDS011;6600;51.362;6.686;2022-07-10T09:21:47;1.60;;;1.03;;
13067;SDS011;6600;51.362;6.686;2022-07-10T09:24:17;0.53;;;0.53;;
13067;SDS011;6600;51.362;6.686;2022-07-10T09:29:20;1.00;;;0.90;;
13067;SDS011;6600;51.362;6.686;2022-07-10T09:34:17;1.47;;;0.80;;
13067;SDS011;6600;51.362;6.686;2022-07-10T09:36:43;1.33;;;1.00;;
13067;SDS011;6600;51.362;6.686;2022-07-10T09:39:09;3.07;;;1.40;;
13067;SDS011;6600;51.362;6.686;2022-07-10T09:41:34;3.87;;;1.83;;
13067;SDS011;6600;51.362;6.686;2022-07-10T09:46:30;1.40;;;1.30;;
13067;SDS011;6600;51.362;6.686;2022-07-10T09:49:15;1.90;;;1.23;;
13067;SDS011;6600;51.362;6.686;2022-07-10T09:51:41;0.50;;;0.50;;
13067;SDS011;6600;51.362;6.686;2022-07-10T09:54:08;1.50;;;1.40;;
13067;SDS011;6600;51.362;6.686;2022-07-10T09:59:11;0.53;;;0.53;;
13067;SDS011;6600;51.362;6.686;2022-07-10T10:01:41;0.77;;;0.77;;
13067;SDS011;6600;51.362;6.686;2022-07-10T10:04:08;0.77;;;0.77;;
13067;SDS011;6600;51.362;6.686;2022-07-10T10:06:36;0.87;;;0.63;;
13067;SDS011;6600;51.362;6.686;2022-07-10T10:11:49;0.50;;;0.50;;
13067;SDS011;6600;51.362;6.686;2022-07-10T10:14:21;0.40;;;0.40;;
13067;SDS011;6600;51.362;6.686;2022-07-10T10:16:48;0.60;;;0.60;;
13067;SDS011;6600;51.362;6.686;2022-07-10T10:19:16;0.57;;;0.57;;
13067;SDS011;6600;51.362;6.686;2022-07-10T10:22:03;0.60;;;0.60;;
13067;SDS011;6600;51.362;6.686;2022-07-10T10:24:31;0.80;;;0.80;;
13067;SDS011;6600;51.362;6.686;2022-07-10T10:26:57;0.87;;;0.70;;
13067;SDS011;6600;51.362;6.686;2022-07-10T10:29:22;0.63;;;0.50;;
13067;SDS011;6600;51.362;6.686;2022-07-10T10:31:48;0.70;;;0.70;;
13067;SDS011;6600;51.362;6.686;2022-07-10T10:34:14;0.53;;;0.53;;
13067;SDS011;6600;51.362;6.686;2022-07-10T10:37:04;0.63;;;0.63;;
13067;SDS011;6600;51.362;6.686;2022-07-10T10:39:32;0.40;;;0.40;;
13067;SDS011;6600;51.362;6.686;2022-07-10T10:42:37;0.80;;;0.80;;
13067;SDS011;6600;51.362;6.686;2022-07-10T10:47:58;0.63;;;0.63;;
13067;SDS011;6600;51.362;6.686;2022-07-10T10:50:41;0.83;;;0.53;;
13067;SDS011;6600;51.362;6.686;2022-07-10T10:53:13;1.90;;;0.80;;
13067;SDS011;6600;51.362;6.686;2022-07-10T10:55:40;0.83;;;0.80;;
13067;SDS011;6600;51.362;6.686;2022-07-10T10:58:15;0.80;;;0.80;;
13067;SDS011;6600;51.362;6.686;2022-07-10T11:00:43;1.07;;;0.83;;
13067;SDS011;6600;51.362;6.686;2022-07-10T11:03:12;0.53;;;0.53;;
13067;SDS011;6600;51.362;6.686;2022-07-10T11:05:45;1.50;;;1.10;;
13067;SDS011;6600;51.362;6.686;2022-07-10T11:08:12;1.30;;;1.20;;
13067;SDS011;6600;51.362;6.686;2022-07-10T11:10:42;1.07;;;0.97;;
13067;SDS011;6600;51.362;6.686;2022-07-10T11:13:12;0.57;;;0.57;;
13067;SDS011;6600;51.362;6.686;2022-07-10T11:15:47;0.80;;;0.80;;
13067;SDS011;6600;51.362;6.686;2022-07-10T11:18:17;0.80;;;0.80;;
13067;SDS011;6600;51.362;6.686;2022-07-10T11:20:50;1.23;;;1.00;;
13067;SDS011;6600;51.362;6.686;2022-07-10T11:26:08;0.57;;;0.57;;
13067;SDS011;6600;51.362;6.686;2022-07-10T11:31:23;0.90;;;0.77;;
13067;SDS011;6600;51.362;6.686;2022-07-10T11:33:50;0.77;;;0.50;;
13067;SDS011;6600;51.362;6.686;2022-07-10T11:38:46;0.73;;;0.73;;
13067;SDS011;6600;51.362;6.686;2022-07-10T11:41:16;1.37;;;0.93;;
13067;SDS011;6600;51.362;6.686;2022-07-10T11:43:46;0.60;;;0.60;;
13067;SDS011;6600;51.362;6.686;2022-07-10T11:46:15;0.60;;;0.60;;
13067;SDS011;6600;51.362;6.686;2022-07-10T11:48:42;0.73;;;0.73;;
13067;SDS011;6600;51.362;6.686;2022-07-10T11:53:56;0.90;;;0.90;;
13067;SDS011;6600;51.362;6.686;2022-07-10T11:56:30;1.00;;;0.90;;
13067;SDS011;6600;51.362;6.686;2022-07-10T11:59:02;2.10;;;1.10;;
13067;SDS011;6600;51.362;6.686;2022-07-10T12:01:29;1.60;;;0.90;;
13067;SDS011;6600;51.362;6.686;2022-07-10T12:04:01;0.83;;;0.80;;
13067;SDS011;6600;51.362;6.686;2022-07-10T12:06:28;0.97;;;0.87;;
13067;SDS011;6600;51.362;6.686;2022-07-10T12:08:55;1.57;;;0.70;;
13067;SDS011;6600;51.362;6.686;2022-07-10T12:11:21;0.90;;;0.90;;
13067;SDS011;6600;51.362;6.686;2022-07-10T12:13:48;1.63;;;0.80;;
13067;SDS011;6600;51.362;6.686;2022-07-10T12:16:16;1.30;;;1.10;;
13067;SDS011;6600;51.362;6.686;2022-07-10T12:18:42;2.90;;;1.20;;
13067;SDS011;6600;51.362;6.686;2022-07-10T12:21:08;1.30;;;1.17;;
13067;SDS011;6600;51.362;6.686;2022-07-10T12:23:35;1.47;;;1.37;;
13067;SDS011;6600;51.362;6.686;2022-07-10T12:26:04;2.40;;;1.27;;
13067;SDS011;6600;51.362;6.686;2022-07-10T12:28:47;4.90;;;1.93;;
13067;SDS011;6600;51.362;6.686;2022-07-10T12:31:20;1.40;;;1.30;;
13067;SDS011;6600;51.362;6.686;2022-07-10T12:33:52;3.40;;;1.37;;
13067;SDS011;6600;51.362;6.686;2022-07-10T12:36:22;1.40;;;1.30;;
13067;SDS011;6600;51.362;6.686;2022-07-10T12:38:55;1.00;;;1.00;;
13067;SDS011;6600;51.362;6.686;2022-07-10T12:41:23;1.20;;;1.10;;
13067;SDS011;6600;51.362;6.686;2022-07-10T12:43:50;1.13;;;1.13;;
13067;SDS011;6600;51.362;6.686;2022-07-10T12:46:17;1.97;;;1.10;;
13067;SDS011;6600;51.362;6.686;2022-07-10T12:49:03;2.30;;;1.20;;
13067;SDS011;6600;51.362;6.686;2022-07-10T12:51:31;1.03;;;0.87;;
13067;SDS011;6600;51.362;6.686;2022-07-10T12:53:58;0.87;;;0.87;;
13067;SDS011;6600;51.362;6.686;2022-07-10T12:58:56;0.83;;;0.83;;
13067;SDS011;6600;51.362;6.686;2022-07-10T13:01:23;1.10;;;0.83;;
13067;SDS011;6600;51.362;6.686;2022-07-10T13:03:48;1.20;;;1.10;;
13067;SDS011;6600;51.362;6.686;2022-07-10T13:06:25;2.87;;;1.13;;
13067;SDS011;6600;51.362;6.686;2022-07-10T13:08:52;0.80;;;0.80;;
13067;SDS011;6600;51.362;6.686;2022-07-10T13:11:17;0.50;;;0.50;;
13067;SDS011;6600;51.362;6.686;2022-07-10T13:13:43;0.87;;;0.87;;
13067;SDS011;6600;51.362;6.686;2022-07-10T13:16:08;0.60;;;0.60;;
13067;SDS011;6600;51.362;6.686;2022-07-10T13:18:33;0.47;;;0.47;;
13067;SDS011;6600;51.362;6.686;2022-07-10T13:20:59;0.83;;;0.70;;
13067;SDS011;6600;51.362;6.686;2022-07-10T13:23:27;1.13;;;0.70;;
13067;SDS011;6600;51.362;6.686;2022-07-10T13:25:53;0.60;;;0.60;;
13067;SDS011;6600;51.362;6.686;2022-07-10T13:28:18;0.53;;;0.53;;
13067;SDS011;6600;51.362;6.686;2022-07-10T13:30:44;0.70;;;0.70;;
13067;SDS011;6600;51.362;6.686;2022-07-10T13:33:09;1.13;;;0.80;;
13067;SDS011;6600;51.362;6.686;2022-07-10T13:35:35;1.53;;;1.00;;
13067;SDS011;6600;51.362;6.686;2022-07-10T13:38:01;0.70;;;0.70;;
13067;SDS011;6600;51.362;6.686;2022-07-10T13:40:32;1.03;;;0.87;;
13067;SDS011;6600;51.362;6.686;2022-07-10T13:43:01;0.83;;;0.60;;
13067;SDS011;6600;51.362;6.686;2022-07-10T13:45:27;1.33;;;0.87;;
13067;SDS011;6600;51.362;6.686;2022-07-10T13:48:08;1.60;;;0.60;;
13067;SDS011;6600;51.362;6.686;2022-07-10T13:50:34;0.60;;;0.60;;
13067;SDS011;6600;51.362;6.686;2022-07-10T13:52:59;0.60;;;0.60;;
13067;SDS011;6600;51.362;6.686;2022-07-10T13:55:25;0.60;;;0.60;;
13067;SDS011;6600;51.362;6.686;2022-07-10T13:57:50;2.00;;;0.70;;
13067;SDS011;6600;51.362;6.686;2022-07-10T14:00:16;0.60;;;0.60;;
13067;SDS011;6600;51.362;6.686;2022-07-10T14:02:41;0.80;;;0.80;;
13067;SDS011;6600;51.362;6.686;2022-07-10T14:05:06;0.60;;;0.60;;
13067;SDS011;6600;51.362;6.686;2022-07-10T14:07:35;0.80;;;0.70;;
13067;SDS011;6600;51.362;6.686;2022-07-10T14:10:00;0.57;;;0.57;;
13067;SDS011;6600;51.362;6.686;2022-07-10T14:12:26;0.97;;;0.80;;
13067;SDS011;6600;51.362;6.686;2022-07-10T14:14:52;0.50;;;0.50;;
13067;SDS011;6600;51.362;6.686;2022-07-10T14:17:17;0.80;;;0.63;;
13067;SDS011;6600;51.362;6.686;2022-07-10T14:19:42;0.70;;;0.67;;
13067;SDS011;6600;51.362;6.686;2022-07-10T14:22:08;0.33;;;0.33;;
13067;SDS011;6600;51.362;6.686;2022-07-10T14:24:34;0.47;;;0.47;;
13067;SDS011;6600;51.362;6.686;2022-07-10T14:26:59;2.20;;;0.80;;
13067;SDS011;6600;51.362;6.686;2022-07-10T14:29:25;0.47;;;0.47;;
13067;SDS011;6600;51.362;6.686;2022-07-10T14:31:50;0.73;;;0.73;;
13067;SDS011;6600;51.362;6.686;2022-07-10T14:34:16;1.57;;;0.77;;
13067;SDS011;6600;51.362;6.686;2022-07-10T14:36:42;0.60;;;0.60;;
13067;SDS011;6600;51.362;6.686;2022-07-10T14:39:08;0.63;;;0.50;;
13067;SDS011;6600;51.362;6.686;2022-07-10T14:41:33;1.87;;;1.07;;
13067;SDS011;6600;51.362;6.686;2022-07-10T14:43:59;0.70;;;0.70;;
13067;SDS011;6600;51.362;6.686;2022-07-10T14:46:24;1.60;;;0.87;;
13067;SDS011;6600;51.362;6.686;2022-07-10T14:48:49;1.27;;;0.60;;
13067;SDS011;6600;51.362;6.686;2022-07-10T14:51:16;0.70;;;0.70;;
13067;SDS011;6600;51.362;6.686;2022-07-10T14:53:42;0.60;;;0.60;;
13067;SDS011;6600;51.362;6.686;2022-07-10T14:56:10;0.50;;;0.50;;
13067;SDS011;6600;51.362;6.686;2022-07-10T14:58:36;0.43;;;0.40;;
13067;SDS011;6600;51.362;6.686;2022-07-10T15:01:02;1.13;;;0.90;;
13067;SDS011;6600;51.362;6.686;2022-07-10T15:03:28;0.77;;;0.73;;
13067;SDS011;6600;51.362;6.686;2022-07-10T15:05:53;0.60;;;0.60;;
13067;SDS011;6600;51.362;6.686;2022-07-10T15:08:21;1.30;;;0.80;;
13067;SDS011;6600;51.362;6.686;2022-07-10T15:10:48;1.40;;;0.80;;
13067;SDS011;6600;51.362;6.686;2022-07-10T15:13:14;2.20;;;1.00;;
13067;SDS011;6600;51.362;6.686;2022-07-10T15:15:40;0.70;;;0.70;;
13067;SDS011;6600;51.362;6.686;2022-07-10T15:18:05;0.70;;;0.70;;
13067;SDS011;6600;51.362;6.686;2022-07-10T15:20:31;0.67;;;0.67;;
13067;SDS011;6600;51.362;6.686;2022-07-10T15:22:56;0.70;;;0.70;;
13067;SDS011;6600;51.362;6.686;2022-07-10T15:25:22;0.60;;;0.60;;
13067;SDS011;6600;51.362;6.686;2022-07-10T15:27:47;0.70;;;0.70;;
13067;SDS011;6600;51.362;6.686;2022-07-10T15:30:13;1.20;;;0.83;;